createdAt,value
2018-12-07T00:02:09.769Z,12.60
2018-12-07T00:04:37.206Z,12.50
2018-12-07T00:07:04.656Z,12.50
2018-12-07T00:09:32.118Z,12.50
2018-12-07T00:11:59.579Z,12.60
2018-12-07T00:14:27.009Z,12.60
2018-12-07T00:16:54.449Z,12.60
2018-12-07T00:19:21.960Z,12.60
2018-12-07T00:21:49.432Z,12.60
2018-12-07T00:24:16.854Z,12.50
2018-12-07T00:26:44.312Z,12.50
2018-12-07T00:29:11.754Z,12.60
2018-12-07T00:31:39.215Z,12.60
2018-12-07T00:34:06.659Z,12.60
2018-12-07T00:36:34.118Z,12.60
2018-12-07T00:39:01.635Z,12.50
2018-12-07T00:41:29.159Z,12.50
2018-12-07T00:43:56.722Z,12.50
2018-12-07T00:46:24.287Z,12.50
2018-12-07T00:48:51.816Z,12.50
2018-12-07T00:51:19.354Z,12.50
2018-12-07T00:53:46.793Z,12.50
2018-12-07T00:56:14.239Z,12.60
2018-12-07T00:58:41.692Z,12.60
2018-12-07T01:01:09.130Z,12.60
2018-12-07T01:03:36.582Z,12.60
2018-12-07T01:06:04.094Z,12.60
2018-12-07T01:08:31.529Z,12.60
2018-12-07T01:10:58.964Z,12.70
2018-12-07T01:13:26.434Z,12.60
2018-12-07T01:15:53.884Z,12.60
2018-12-07T01:18:25.214Z,12.60
2018-12-07T01:20:52.641Z,12.60
2018-12-07T01:23:20.111Z,12.60
2018-12-07T01:25:47.559Z,12.60
2018-12-07T01:28:15.012Z,12.70
2018-12-07T01:30:42.470Z,12.60
2018-12-07T01:33:09.921Z,12.60
2018-12-07T01:35:37.364Z,12.60
2018-12-07T01:38:04.851Z,12.60
2018-12-07T01:40:32.306Z,12.60
2018-12-07T01:42:59.773Z,12.50
2018-12-07T01:45:27.204Z,12.50
2018-12-07T01:47:54.682Z,12.50
2018-12-07T01:50:22.111Z,12.40
2018-12-07T01:52:49.644Z,12.50
2018-12-07T01:55:17.097Z,12.50
2018-12-07T01:57:44.568Z,12.50
2018-12-07T02:00:12.101Z,12.50
2018-12-07T02:02:39.570Z,12.50
2018-12-07T02:05:07.133Z,12.60
2018-12-07T02:07:34.798Z,12.60
2018-12-07T02:10:02.330Z,12.60
2018-12-07T02:12:29.912Z,12.40
2018-12-07T02:14:57.382Z,12.40
2018-12-07T02:17:24.825Z,12.40
2018-12-07T02:19:52.337Z,12.40
2018-12-07T02:22:19.913Z,12.50
2018-12-07T02:24:47.369Z,12.50
2018-12-07T02:27:14.820Z,12.50
2018-12-07T02:29:42.272Z,12.40
2018-12-07T02:32:09.715Z,12.40
2018-12-07T02:34:37.194Z,12.50
2018-12-07T02:37:04.640Z,12.50
2018-12-07T02:39:32.108Z,12.50
2018-12-07T02:41:59.533Z,12.50
2018-12-07T02:44:27.003Z,12.50
2018-12-07T02:46:54.445Z,12.50
2018-12-07T02:49:21.893Z,12.50
2018-12-07T02:51:49.358Z,12.50
2018-12-07T02:54:16.799Z,12.40
2018-12-07T02:56:44.350Z,12.40
2018-12-07T02:59:11.823Z,12.30
2018-12-07T03:01:39.289Z,12.30
2018-12-07T03:04:06.715Z,12.40
2018-12-07T03:06:34.155Z,12.40
2018-12-07T03:09:01.599Z,12.30
2018-12-07T03:11:29.056Z,12.30
2018-12-07T03:13:56.492Z,12.40
2018-12-07T03:16:23.958Z,12.30
2018-12-07T03:18:51.436Z,12.40
2018-12-07T03:21:18.890Z,12.40
2018-12-07T03:23:46.380Z,12.50
2018-12-07T03:26:13.843Z,12.50
2018-12-07T03:28:41.272Z,12.60
2018-12-07T03:31:08.740Z,12.70
2018-12-07T03:33:36.218Z,12.70
2018-12-07T03:36:03.780Z,12.70
2018-12-07T03:38:31.231Z,12.70
2018-12-07T03:40:58.703Z,12.80
2018-12-07T03:43:26.134Z,12.80
2018-12-07T03:45:53.560Z,12.80
2018-12-07T03:48:21.004Z,12.80
2018-12-07T03:50:48.438Z,12.70
2018-12-07T03:53:15.883Z,12.70
2018-12-07T03:55:43.315Z,12.70
2018-12-07T03:58:10.774Z,12.70
2018-12-07T04:00:38.317Z,12.80
2018-12-07T04:03:05.784Z,12.80
2018-12-07T04:05:33.203Z,12.80
2018-12-07T04:08:00.664Z,12.70
2018-12-07T04:10:28.109Z,12.70
2018-12-07T04:12:55.581Z,12.70
2018-12-07T04:15:23.071Z,12.70
2018-12-07T04:17:50.549Z,12.70
2018-12-07T04:20:18.046Z,12.80
2018-12-07T04:22:45.510Z,12.80
2018-12-07T04:25:12.957Z,12.90
2018-12-07T04:27:40.393Z,12.90
2018-12-07T04:30:23.763Z,13.00
2018-12-07T04:32:51.254Z,12.80
2018-12-07T04:35:18.796Z,12.90
2018-12-07T04:37:46.286Z,12.90
2018-12-07T04:40:13.986Z,13.00
2018-12-07T04:42:41.470Z,13.00
2018-12-07T04:45:09.030Z,13.00
2018-12-07T04:47:36.490Z,13.00
2018-12-07T04:50:04.661Z,13.00
2018-12-07T04:52:32.111Z,13.00
2018-12-07T04:54:59.610Z,13.10
2018-12-07T04:57:27.059Z,13.00
2018-12-07T04:59:54.598Z,13.00
2018-12-07T05:02:22.063Z,13.00
2018-12-07T05:04:49.932Z,13.10
2018-12-07T05:07:17.455Z,13.10
2018-12-07T05:09:44.984Z,13.10
2018-12-07T05:12:12.539Z,13.00
2018-12-07T05:14:39.969Z,13.00
2018-12-07T05:17:07.425Z,13.00
2018-12-07T05:19:34.959Z,13.00
2018-12-07T05:22:02.405Z,13.00
2018-12-07T05:24:29.835Z,13.00
2018-12-07T05:26:57.376Z,13.00
2018-12-07T05:29:24.823Z,13.00
2018-12-07T05:31:52.281Z,13.00
2018-12-07T05:34:19.708Z,12.90
2018-12-07T05:36:47.166Z,13.00
2018-12-07T05:39:14.610Z,13.00
2018-12-07T05:41:42.060Z,13.00
2018-12-07T05:44:09.517Z,13.00
2018-12-07T05:46:36.953Z,13.00
2018-12-07T05:49:04.476Z,13.00
2018-12-07T05:51:31.981Z,13.00
2018-12-07T05:53:59.492Z,13.00
2018-12-07T05:56:26.950Z,13.00
2018-12-07T05:58:54.403Z,13.00
2018-12-07T06:01:21.909Z,13.00
2018-12-07T06:03:49.367Z,13.00
2018-12-07T06:06:16.817Z,13.00
2018-12-07T06:08:44.292Z,13.10
2018-12-07T06:11:11.724Z,13.10
2018-12-07T06:13:39.186Z,13.10
2018-12-07T06:16:06.634Z,13.00
2018-12-07T06:18:34.218Z,13.00
2018-12-07T06:21:01.643Z,13.00
2018-12-07T06:23:29.101Z,13.00
2018-12-07T06:25:56.589Z,13.10
2018-12-07T06:28:24.113Z,13.10
2018-12-07T06:30:51.622Z,13.10
2018-12-07T06:33:19.070Z,13.10
2018-12-07T06:35:46.501Z,13.10
2018-12-07T06:38:13.978Z,13.20
2018-12-07T06:40:42.417Z,13.20
2018-12-07T06:43:09.868Z,13.10
2018-12-07T06:45:37.344Z,13.10
2018-12-07T06:48:04.800Z,13.10
2018-12-07T06:50:32.231Z,13.00
2018-12-07T06:52:59.677Z,13.10
2018-12-07T06:55:27.132Z,13.10
2018-12-07T06:57:55.457Z,13.10
2018-12-07T07:00:22.955Z,13.10
2018-12-07T07:02:50.394Z,13.10
2018-12-07T07:05:17.830Z,13.10
2018-12-07T07:07:45.278Z,13.10
2018-12-07T07:10:13.613Z,13.10
2018-12-07T07:12:41.072Z,13.10
2018-12-07T07:15:08.568Z,13.20
2018-12-07T07:17:36.069Z,13.10
2018-12-07T07:20:04.744Z,13.10
2018-12-07T07:22:32.192Z,13.20
2018-12-07T07:24:59.653Z,13.20
2018-12-07T07:27:27.122Z,13.20
2018-12-07T07:29:54.679Z,13.20
2018-12-07T07:32:22.129Z,13.30
2018-12-07T07:34:49.581Z,13.30
2018-12-07T07:37:17.056Z,13.30
2018-12-07T07:39:44.495Z,13.30
2018-12-07T07:42:12.022Z,13.40
2018-12-07T07:44:39.472Z,13.40
2018-12-07T07:47:06.918Z,13.40
2018-12-07T07:49:34.385Z,13.50
2018-12-07T07:52:01.820Z,13.50
2018-12-07T07:54:29.283Z,13.50
2018-12-07T07:56:56.712Z,13.40
2018-12-07T07:59:24.200Z,13.40
2018-12-07T08:01:51.790Z,13.40
2018-12-07T08:04:19.267Z,13.20
2018-12-07T08:06:46.688Z,13.30
2018-12-07T08:09:14.144Z,13.20
2018-12-07T08:11:41.573Z,13.30
2018-12-07T08:14:09.063Z,13.30
2018-12-07T08:16:36.580Z,13.40
2018-12-07T08:19:04.165Z,13.40
2018-12-07T08:21:31.595Z,13.50
2018-12-07T08:23:59.055Z,13.50
2018-12-07T08:26:26.499Z,13.60
2018-12-07T08:28:53.937Z,13.60
2018-12-07T08:31:21.429Z,13.70
2018-12-07T08:33:48.871Z,13.60
2018-12-07T08:36:16.328Z,13.60
2018-12-07T08:38:43.767Z,13.60
2018-12-07T08:41:11.227Z,13.70
2018-12-07T08:43:38.656Z,13.80
2018-12-07T08:46:06.180Z,13.80
2018-12-07T08:48:33.676Z,13.80
2018-12-07T08:51:02.209Z,13.90
2018-12-07T08:53:29.703Z,14.00
2018-12-07T08:55:57.144Z,14.00
2018-12-07T08:58:24.602Z,14.10
2018-12-07T09:00:52.078Z,14.00
2018-12-07T09:03:19.505Z,14.10
2018-12-07T09:05:47.008Z,14.00
2018-12-07T09:08:15.336Z,14.20
2018-12-07T09:10:43.112Z,14.20
2018-12-07T09:13:10.578Z,14.10
2018-12-07T09:15:38.021Z,14.30
2018-12-07T09:18:05.471Z,14.30
2018-12-07T09:20:32.927Z,14.30
2018-12-07T09:23:00.422Z,14.30
2018-12-07T09:25:27.873Z,14.40
2018-12-07T09:27:55.321Z,14.40
2018-12-07T09:30:22.761Z,14.40
2018-12-07T09:32:50.215Z,14.40
2018-12-07T09:35:17.715Z,14.30
2018-12-07T09:37:45.163Z,14.40
2018-12-07T09:40:12.635Z,14.30
2018-12-07T09:42:40.073Z,14.30
2018-12-07T09:45:07.745Z,14.20
2018-12-07T09:47:35.177Z,14.20
2018-12-07T09:50:02.940Z,14.30
2018-12-07T09:52:30.521Z,14.20
2018-12-07T09:54:57.964Z,14.20
2018-12-07T09:57:25.397Z,14.20
2018-12-07T09:59:53.100Z,14.20
2018-12-07T10:02:20.528Z,14.10
2018-12-07T10:04:47.971Z,14.10
2018-12-07T10:07:15.452Z,14.10
2018-12-07T10:09:42.882Z,14.10
2018-12-07T10:12:10.341Z,14.00
2018-12-07T10:14:37.870Z,14.00
2018-12-07T10:17:05.381Z,14.00
2018-12-07T10:19:32.829Z,14.10
2018-12-07T10:22:00.369Z,14.10
2018-12-07T10:24:27.801Z,14.10
2018-12-07T10:26:59.208Z,14.10
2018-12-07T10:29:26.654Z,14.20
2018-12-07T10:31:54.101Z,14.20
2018-12-07T10:34:21.554Z,14.20
2018-12-07T10:36:49.007Z,14.20
2018-12-07T10:39:16.435Z,14.10
2018-12-07T10:41:43.883Z,14.20
2018-12-07T10:44:11.313Z,14.20
2018-12-07T10:46:38.775Z,14.30
2018-12-07T10:49:06.210Z,14.30
2018-12-07T10:51:33.661Z,14.20
2018-12-07T10:54:01.099Z,14.20
2018-12-07T10:56:28.559Z,14.30
2018-12-07T10:58:55.990Z,14.30
2018-12-07T11:01:28.997Z,14.30
2018-12-07T11:04:02.113Z,14.30
2018-12-07T11:06:35.109Z,14.30
2018-12-07T11:09:04.565Z,14.30
2018-12-07T11:11:37.596Z,14.30
2018-12-07T11:14:11.586Z,14.30
2018-12-07T11:16:44.676Z,14.20
2018-12-07T11:19:17.816Z,14.20
2018-12-07T11:21:57.885Z,14.10
2018-12-07T11:24:31.040Z,14.20
2018-12-07T11:27:04.049Z,14.20
2018-12-07T11:29:37.297Z,14.20
2018-12-07T11:32:10.443Z,14.20
2018-12-07T11:34:39.667Z,14.30
2018-12-07T11:37:07.142Z,14.30
2018-12-07T11:39:34.572Z,14.30
2018-12-07T11:42:02.043Z,14.30
2018-12-07T11:44:29.482Z,14.30
2018-12-07T11:46:56.924Z,14.10
2018-12-07T11:49:26.366Z,14.10
2018-12-07T11:51:53.808Z,14.20
2018-12-07T11:54:21.268Z,14.30
2018-12-07T11:56:48.710Z,14.20
2018-12-07T11:59:16.152Z,14.20
2018-12-07T12:01:44.925Z,14.20
2018-12-07T12:04:13.098Z,14.10
2018-12-07T12:06:40.558Z,14.10
2018-12-07T12:09:08.122Z,14.10
2018-12-07T12:11:35.606Z,14.10
2018-12-07T12:14:03.103Z,14.20
2018-12-07T12:16:30.545Z,14.20
2018-12-07T12:18:57.999Z,14.20
2018-12-07T12:21:25.473Z,14.10
2018-12-07T12:23:53.732Z,14.00
2018-12-07T12:26:21.548Z,14.00
2018-12-07T12:28:48.986Z,13.90
2018-12-07T12:31:16.441Z,13.90
2018-12-07T12:33:43.878Z,13.80
2018-12-07T12:36:17.015Z,13.80
2018-12-07T12:38:40.798Z,13.90
2018-12-07T12:41:08.230Z,13.90
2018-12-07T12:43:35.681Z,13.90
2018-12-07T12:46:03.187Z,14.00
2018-12-07T12:48:30.641Z,14.00
2018-12-07T12:50:58.749Z,14.10
2018-12-07T12:53:26.260Z,14.20
2018-12-07T12:55:53.820Z,14.20
2018-12-07T12:58:21.334Z,14.20
2018-12-07T13:00:48.764Z,14.10
2018-12-07T13:03:16.248Z,14.00
2018-12-07T13:05:43.832Z,14.00
2018-12-07T13:08:11.322Z,13.90
2018-12-07T13:10:38.858Z,13.90
2018-12-07T13:13:06.301Z,13.80
2018-12-07T13:15:33.754Z,13.70
2018-12-07T13:18:01.230Z,13.70
2018-12-07T13:20:28.677Z,13.60
2018-12-07T13:22:56.122Z,13.60
2018-12-07T13:25:23.580Z,13.60
2018-12-07T13:27:51.038Z,13.50
2018-12-07T13:30:18.699Z,13.50
2018-12-07T13:32:46.154Z,13.40
2018-12-07T13:35:13.649Z,13.30
2018-12-07T13:37:42.120Z,13.20
2018-12-07T13:40:09.665Z,13.10
2018-12-07T13:42:37.323Z,13.00
2018-12-07T13:45:06.266Z,13.10
2018-12-07T13:47:33.940Z,13.10
2018-12-07T13:50:07.177Z,13.00
2018-12-07T13:52:35.808Z,12.90
2018-12-07T13:55:03.411Z,12.90
2018-12-07T13:57:31.159Z,12.90
2018-12-07T13:59:58.669Z,12.90
2018-12-07T14:02:26.198Z,12.90
2018-12-07T14:04:53.829Z,12.90
2018-12-07T14:07:21.451Z,13.00
2018-12-07T14:09:48.948Z,13.00
2018-12-07T14:12:16.563Z,13.00
2018-12-07T14:14:44.258Z,13.00
2018-12-07T14:17:12.702Z,12.90
2018-12-07T14:19:40.254Z,12.90
2018-12-07T14:22:07.755Z,12.90
2018-12-07T14:24:35.290Z,12.90
2018-12-07T14:27:02.951Z,12.90
2018-12-07T14:29:30.540Z,12.90
2018-12-07T14:31:58.168Z,13.00
2018-12-07T14:34:25.761Z,13.00
2018-12-07T14:36:53.403Z,13.00
2018-12-07T14:39:21.088Z,13.10
2018-12-07T14:41:48.701Z,13.20
2018-12-07T14:44:17.667Z,13.30
2018-12-07T14:46:45.678Z,13.30
2018-12-07T14:49:13.226Z,13.30
2018-12-07T14:51:40.683Z,13.30
2018-12-07T14:54:08.312Z,13.40
2018-12-07T14:56:36.096Z,13.50
2018-12-07T14:59:03.940Z,13.50
2018-12-07T15:01:32.440Z,13.50
2018-12-07T15:04:00.054Z,13.50
2018-12-07T15:06:27.550Z,13.50
2018-12-07T15:08:55.309Z,13.40
2018-12-07T15:11:23.094Z,13.40
2018-12-07T15:13:50.595Z,13.40
2018-12-07T15:16:18.106Z,13.40
2018-12-07T15:18:45.898Z,13.30
2018-12-07T15:21:13.520Z,13.30
2018-12-07T15:23:41.063Z,13.30
2018-12-07T15:26:08.848Z,13.20
2018-12-07T15:28:36.514Z,13.10
2018-12-07T15:31:04.443Z,13.00
2018-12-07T15:33:32.954Z,13.00
2018-12-07T15:36:01.437Z,13.00
2018-12-07T15:38:28.967Z,12.80
2018-12-07T15:40:56.520Z,12.70
2018-12-07T15:43:24.209Z,12.60
2018-12-07T15:45:55.683Z,12.60
2018-12-07T15:48:23.437Z,12.50
2018-12-07T15:50:50.981Z,12.40
2018-12-07T15:53:18.577Z,12.40
2018-12-07T15:55:46.107Z,12.50
2018-12-07T15:58:13.741Z,12.40
2018-12-07T16:00:41.271Z,12.40
2018-12-07T16:03:08.759Z,12.40
2018-12-07T16:05:36.290Z,12.40
2018-12-07T16:08:04.002Z,12.40
2018-12-07T16:10:31.723Z,12.40
2018-12-07T16:12:59.314Z,12.40
2018-12-07T16:15:26.942Z,12.40
2018-12-07T16:17:54.586Z,12.40
2018-12-07T16:20:22.186Z,12.40
2018-12-07T16:22:49.666Z,12.40
2018-12-07T16:25:17.220Z,12.40
2018-12-07T16:27:44.842Z,12.40
2018-12-07T16:30:12.599Z,12.40
2018-12-07T16:32:40.088Z,12.40
2018-12-07T16:35:07.628Z,12.50
2018-12-07T16:37:37.190Z,12.50
2018-12-07T16:40:06.453Z,12.50
2018-12-07T16:42:33.941Z,12.60
2018-12-07T16:45:01.463Z,12.60
2018-12-07T16:47:29.387Z,12.60
2018-12-07T16:49:57.104Z,12.60
2018-12-07T16:52:24.878Z,12.60
2018-12-07T16:54:52.405Z,12.60
2018-12-07T16:57:20.025Z,12.60
2018-12-07T16:59:47.776Z,12.70
2018-12-07T17:02:17.382Z,12.70
2018-12-07T17:04:45.112Z,12.70
2018-12-07T17:07:13.955Z,12.70
2018-12-07T17:09:41.476Z,12.70
2018-12-07T17:12:09.139Z,12.70
2018-12-07T17:14:36.866Z,12.70
2018-12-07T17:17:06.481Z,12.70
2018-12-07T17:19:34.225Z,12.70
2018-12-07T17:22:01.783Z,12.70
2018-12-07T17:24:29.367Z,12.60
2018-12-07T17:26:56.954Z,12.60
2018-12-07T17:29:24.645Z,12.60
2018-12-07T17:31:52.421Z,12.60
2018-12-07T17:34:19.923Z,12.60
2018-12-07T17:36:47.575Z,12.60
2018-12-07T17:39:15.091Z,12.60
2018-12-07T17:41:44.711Z,12.50
2018-12-07T17:44:12.182Z,12.60
2018-12-07T17:46:40.610Z,12.60
2018-12-07T17:49:08.268Z,12.60
2018-12-07T17:51:35.874Z,12.60
2018-12-07T17:54:03.568Z,12.60
2018-12-07T17:56:31.242Z,12.60
2018-12-07T17:58:58.896Z,12.50
2018-12-07T18:01:26.422Z,12.50
2018-12-07T18:03:53.938Z,12.50
2018-12-07T18:06:25.743Z,12.60
2018-12-07T18:08:53.248Z,12.50
2018-12-07T18:11:21.827Z,12.60
2018-12-07T18:13:49.448Z,12.50
2018-12-07T18:16:17.130Z,12.50
2018-12-07T18:18:44.617Z,12.50
2018-12-07T18:21:12.308Z,12.40
2018-12-07T18:23:39.930Z,12.40
2018-12-07T18:26:07.786Z,12.30
2018-12-07T18:28:35.564Z,12.30
2018-12-07T18:31:03.131Z,12.30
2018-12-07T18:33:30.706Z,12.30
2018-12-07T18:35:58.258Z,12.30
2018-12-07T18:38:25.926Z,12.30
2018-12-07T18:40:53.718Z,12.30
2018-12-07T18:43:21.219Z,12.40
2018-12-07T18:45:49.075Z,12.30
2018-12-07T18:48:16.745Z,12.30
2018-12-07T18:50:44.649Z,12.30
2018-12-07T18:53:12.147Z,12.30
2018-12-07T18:55:40.070Z,12.30
2018-12-07T18:58:07.794Z,12.30
2018-12-07T19:00:35.429Z,12.30
2018-12-07T19:03:03.070Z,12.40
2018-12-07T19:05:30.714Z,12.30
2018-12-07T19:07:58.333Z,12.30
2018-12-07T19:10:25.985Z,12.30
2018-12-07T19:12:53.624Z,12.30
2018-12-07T19:15:21.161Z,12.30
2018-12-07T19:17:48.795Z,12.30
2018-12-07T19:20:17.488Z,12.20
2018-12-07T19:22:45.340Z,12.20
2018-12-07T19:25:12.847Z,12.20
2018-12-07T19:27:40.550Z,12.20
2018-12-07T19:30:14.592Z,12.30
2018-12-07T19:32:39.459Z,12.30
2018-12-07T19:35:07.024Z,12.30
2018-12-07T19:37:34.601Z,12.30
2018-12-07T19:40:02.686Z,12.20
2018-12-07T19:42:30.337Z,12.20
2018-12-07T19:44:57.820Z,12.20
2018-12-07T19:47:25.521Z,12.10
2018-12-07T19:49:53.083Z,12.10
2018-12-07T19:52:20.813Z,12.10
2018-12-07T19:54:48.411Z,12.00
2018-12-07T19:57:16.072Z,12.00
2018-12-07T19:59:43.783Z,12.10
2018-12-07T20:02:11.635Z,12.00
2018-12-07T20:04:39.166Z,12.00
2018-12-07T20:07:06.972Z,12.00
2018-12-07T20:09:34.538Z,12.00
2018-12-07T20:12:02.231Z,12.00
2018-12-07T20:14:29.686Z,12.00
2018-12-07T20:16:57.271Z,12.00
2018-12-07T20:19:24.711Z,12.00
2018-12-07T20:21:52.177Z,12.00
2018-12-07T20:24:19.725Z,11.90
2018-12-07T20:26:47.466Z,11.80
2018-12-07T20:29:15.309Z,11.80
2018-12-07T20:31:42.932Z,11.70
2018-12-07T20:34:10.457Z,11.70
2018-12-07T20:36:38.184Z,11.60
2018-12-07T20:39:07.115Z,11.50
2018-12-07T20:41:34.876Z,11.50
2018-12-07T20:44:02.392Z,11.50
2018-12-07T20:46:29.910Z,11.50
2018-12-07T20:48:57.530Z,11.30
2018-12-07T20:51:26.266Z,11.10
2018-12-07T20:53:54.133Z,10.90
2018-12-07T20:56:22.022Z,10.70
2018-12-07T20:58:49.682Z,10.50
2018-12-07T21:01:17.256Z,10.30
2018-12-07T21:04:02.051Z,10.10
2018-12-07T21:06:48.626Z,10.00
2018-12-07T21:09:23.169Z,9.80
2018-12-07T21:11:54.215Z,9.70
2018-12-07T21:14:22.992Z,9.70
2018-12-07T21:17:05.129Z,9.60
2018-12-07T21:19:33.584Z,9.50
2018-12-07T21:22:01.379Z,9.50
2018-12-07T21:24:29.189Z,9.40
2018-12-07T21:26:56.802Z,9.30
2018-12-07T21:29:25.304Z,9.30
2018-12-07T21:31:56.130Z,9.30
2018-12-07T21:34:29.187Z,9.20
2018-12-07T21:36:56.644Z,9.10
2018-12-07T21:39:24.546Z,9.10
2018-12-07T21:41:52.238Z,9.10
2018-12-07T21:44:20.139Z,9.20
2018-12-07T21:46:47.711Z,9.20
2018-12-07T21:49:15.377Z,9.30
2018-12-07T21:51:52.679Z,9.30
2018-12-07T21:54:20.393Z,9.40
2018-12-07T21:56:48.171Z,9.40
2018-12-07T21:59:15.673Z,9.40
2018-12-07T22:01:43.773Z,9.50
2018-12-07T22:04:11.556Z,9.50
2018-12-07T22:06:39.054Z,9.50
2018-12-07T22:09:07.093Z,9.50
2018-12-07T22:11:34.849Z,9.50
2018-12-07T22:14:02.580Z,9.50
2018-12-07T22:16:30.038Z,9.50
2018-12-07T22:18:57.484Z,9.60
2018-12-07T22:21:24.985Z,9.60
2018-12-07T22:23:52.471Z,9.50
2018-12-07T22:26:20.061Z,9.60
2018-12-07T22:28:47.727Z,9.60
2018-12-07T22:31:15.272Z,9.50
2018-12-07T22:33:42.771Z,9.50
2018-12-07T22:36:10.268Z,9.50
2018-12-07T22:38:37.867Z,9.40
2018-12-07T22:41:05.532Z,9.50
2018-12-07T22:43:33.303Z,9.50
2018-12-07T22:46:00.973Z,9.50
2018-12-07T22:48:28.525Z,9.50
2018-12-07T22:50:55.974Z,9.40
2018-12-07T22:53:23.502Z,9.40
2018-12-07T22:55:50.949Z,9.40
2018-12-07T22:58:18.399Z,9.40
2018-12-07T23:00:47.660Z,9.30
2018-12-07T23:03:15.095Z,9.30
2018-12-07T23:05:42.536Z,9.30
2018-12-07T23:08:09.990Z,9.30
2018-12-07T23:10:38.342Z,9.20
2018-12-07T23:13:05.803Z,9.20
2018-12-07T23:15:33.224Z,9.20
2018-12-07T23:18:00.665Z,9.20
2018-12-07T23:20:28.096Z,9.20
2018-12-07T23:22:55.569Z,9.20
2018-12-07T23:25:24.029Z,9.30
2018-12-07T23:27:53.172Z,9.30
2018-12-07T23:30:20.649Z,9.30
2018-12-07T23:32:48.081Z,9.30
2018-12-07T23:35:15.593Z,9.30
2018-12-07T23:37:43.037Z,9.30
2018-12-07T23:40:10.543Z,9.20
2018-12-07T23:42:37.979Z,9.10
2018-12-07T23:45:05.500Z,9.20
2018-12-07T23:47:32.958Z,9.20
2018-12-07T23:50:00.413Z,9.20
2018-12-07T23:52:27.855Z,9.30
2018-12-07T23:54:55.297Z,9.30
2018-12-07T23:57:22.752Z,9.30
2018-12-07T23:59:50.226Z,9.30
